createdAt,value
2022-11-30T00:00:28.163Z,0.00
2022-11-30T00:01:28.084Z,0.00
2022-11-30T00:02:28.134Z,0.00
2022-11-30T00:03:27.967Z,0.00
2022-11-30T00:04:27.841Z,0.00
2022-11-30T00:05:27.766Z,0.00
2022-11-30T00:06:27.699Z,0.00
2022-11-30T00:07:27.741Z,0.00
2022-11-30T00:08:27.534Z,0.00
2022-11-30T00:09:27.451Z,0.00
2022-11-30T00:10:27.374Z,0.00
2022-11-30T00:11:27.296Z,0.00
2022-11-30T00:12:27.215Z,0.00
2022-11-30T00:13:27.131Z,0.00
2022-11-30T00:14:27.070Z,0.00
2022-11-30T00:15:26.966Z,0.00
2022-11-30T00:16:26.957Z,0.00
2022-11-30T00:17:26.801Z,0.00
2022-11-30T00:18:26.713Z,0.00
2022-11-30T00:19:26.634Z,0.00
2022-11-30T00:20:26.561Z,0.00
2022-11-30T00:21:26.485Z,0.00
2022-11-30T00:22:26.408Z,0.00
2022-11-30T00:23:26.331Z,0.00
2022-11-30T00:24:26.252Z,0.00
2022-11-30T00:25:26.169Z,0.00
2022-11-30T00:26:26.085Z,0.00
2022-11-30T00:27:26.008Z,0.00
2022-11-30T00:28:25.917Z,0.00
2022-11-30T00:29:25.835Z,0.00
2022-11-30T00:30:25.850Z,0.00
2022-11-30T00:31:25.732Z,0.00
2022-11-30T00:32:25.590Z,0.00
2022-11-30T00:33:25.503Z,0.00
2022-11-30T00:34:25.430Z,0.00
2022-11-30T00:35:25.350Z,0.00
2022-11-30T00:36:25.278Z,0.00
2022-11-30T00:37:25.199Z,0.00
2022-11-30T00:38:25.130Z,0.00
2022-11-30T00:39:25.050Z,0.00
2022-11-30T00:40:24.976Z,0.00
2022-11-30T00:41:24.907Z,0.00
2022-11-30T00:42:24.823Z,0.00
2022-11-30T00:43:24.743Z,0.00
2022-11-30T00:44:24.665Z,0.00
2022-11-30T00:45:24.586Z,0.00
2022-11-30T00:46:24.602Z,0.00
2022-11-30T00:47:24.431Z,0.00
2022-11-30T00:48:24.352Z,0.00
2022-11-30T00:49:24.275Z,0.00
2022-11-30T00:50:24.197Z,0.00
2022-11-30T00:51:24.115Z,0.00
2022-11-30T00:52:24.037Z,0.00
2022-11-30T00:53:23.958Z,0.00
2022-11-30T00:54:23.886Z,0.00
2022-11-30T00:55:23.811Z,0.00
2022-11-30T00:56:24.894Z,0.00
2022-11-30T00:57:23.660Z,0.00
2022-11-30T00:58:23.585Z,0.00
2022-11-30T00:59:23.510Z,0.00
2022-11-30T01:00:23.439Z,0.00
2022-11-30T01:01:23.389Z,0.00
2022-11-30T01:02:23.361Z,0.00
2022-11-30T01:03:23.237Z,0.00
2022-11-30T01:04:23.167Z,0.00
2022-11-30T01:05:23.094Z,0.00
2022-11-30T01:06:23.020Z,0.00
2022-11-30T01:07:23.021Z,0.00
2022-11-30T01:08:22.883Z,0.00
2022-11-30T01:09:22.811Z,0.00
2022-11-30T01:10:22.741Z,0.00
2022-11-30T01:11:22.670Z,0.00
2022-11-30T01:12:22.599Z,0.00
2022-11-30T01:13:22.524Z,0.00
2022-11-30T01:14:22.450Z,0.00
2022-11-30T01:15:22.380Z,0.00
2022-11-30T01:16:22.369Z,0.00
2022-11-30T01:17:22.243Z,0.00
2022-11-30T01:18:22.198Z,0.00
2022-11-30T01:19:22.107Z,0.00
2022-11-30T01:20:22.040Z,0.00
2022-11-30T01:21:21.966Z,0.00
2022-11-30T01:22:21.896Z,0.00
2022-11-30T01:23:21.826Z,0.00
2022-11-30T01:24:21.760Z,0.00
2022-11-30T01:25:21.685Z,0.00
2022-11-30T01:26:21.614Z,0.00
2022-11-30T01:27:21.544Z,0.00
2022-11-30T01:28:21.469Z,0.00
2022-11-30T01:29:21.398Z,0.00
2022-11-30T01:30:21.334Z,0.00
2022-11-30T01:31:21.397Z,0.00
2022-11-30T01:32:21.186Z,0.00
2022-11-30T01:33:21.115Z,0.00
2022-11-30T01:34:21.070Z,0.00
2022-11-30T01:35:20.972Z,0.00
2022-11-30T01:36:20.901Z,0.00
2022-11-30T01:37:20.829Z,0.00
2022-11-30T01:38:20.767Z,0.00
2022-11-30T01:39:20.715Z,0.00
2022-11-30T01:40:20.627Z,0.00
2022-11-30T01:41:20.554Z,0.00
2022-11-30T01:42:20.485Z,0.00
2022-11-30T01:43:20.412Z,0.00
2022-11-30T01:44:20.532Z,0.00
2022-11-30T01:45:20.265Z,0.00
2022-11-30T01:46:20.309Z,0.00
2022-11-30T01:47:20.114Z,0.00
2022-11-30T01:48:20.042Z,0.00
2022-11-30T01:49:19.967Z,0.00
2022-11-30T01:50:19.918Z,0.00
2022-11-30T01:51:19.823Z,0.00
2022-11-30T01:52:19.753Z,0.00
2022-11-30T01:53:19.675Z,0.00
2022-11-30T01:54:19.602Z,0.00
2022-11-30T01:55:19.530Z,0.00
2022-11-30T01:56:19.464Z,0.00
2022-11-30T01:57:19.398Z,0.00
2022-11-30T01:58:19.322Z,0.00
2022-11-30T01:59:19.257Z,0.00
2022-11-30T02:00:19.174Z,0.00
2022-11-30T02:01:19.204Z,0.00
2022-11-30T02:02:19.057Z,0.00
2022-11-30T02:03:18.951Z,0.00
2022-11-30T02:04:18.878Z,0.00
2022-11-30T02:05:18.806Z,0.00
2022-11-30T02:06:18.754Z,0.00
2022-11-30T02:07:18.901Z,0.00
2022-11-30T02:08:18.756Z,0.00
2022-11-30T02:09:18.493Z,0.00
2022-11-30T02:10:18.414Z,0.00
2022-11-30T02:11:18.333Z,0.00
2022-11-30T02:12:18.260Z,0.00
2022-11-30T02:13:18.180Z,0.00
2022-11-30T02:14:18.105Z,0.00
2022-11-30T02:15:18.033Z,0.00
2022-11-30T02:16:17.957Z,0.00
2022-11-30T02:17:17.882Z,0.00
2022-11-30T02:18:17.814Z,0.00
2022-11-30T02:19:17.742Z,0.00
2022-11-30T02:20:17.664Z,0.00
2022-11-30T02:21:17.588Z,0.00
2022-11-30T02:22:17.552Z,0.00
2022-11-30T02:23:17.444Z,0.00
2022-11-30T02:24:17.372Z,0.00
2022-11-30T02:25:17.308Z,0.00
2022-11-30T02:26:17.211Z,0.00
2022-11-30T02:27:17.130Z,0.00
2022-11-30T02:28:17.058Z,0.00
2022-11-30T02:29:16.975Z,0.00
2022-11-30T02:30:16.897Z,0.00
2022-11-30T02:31:16.894Z,0.00
2022-11-30T02:32:16.745Z,0.00
2022-11-30T02:33:16.661Z,0.00
2022-11-30T02:34:16.579Z,0.00
2022-11-30T02:35:16.507Z,0.00
2022-11-30T02:36:16.432Z,0.00
2022-11-30T02:37:16.359Z,0.00
2022-11-30T02:38:16.310Z,0.00
2022-11-30T02:39:16.208Z,0.00
2022-11-30T02:40:16.129Z,0.00
2022-11-30T02:41:16.053Z,0.00
2022-11-30T02:42:15.973Z,0.00
2022-11-30T02:43:15.896Z,0.00
2022-11-30T02:44:15.817Z,0.00
2022-11-30T02:45:15.733Z,0.00
2022-11-30T02:46:15.689Z,0.00
2022-11-30T02:47:15.568Z,0.00
2022-11-30T02:48:15.487Z,0.00
2022-11-30T02:49:15.411Z,0.00
2022-11-30T02:50:15.331Z,0.00
2022-11-30T02:51:15.249Z,0.00
2022-11-30T02:52:15.167Z,0.00
2022-11-30T02:53:15.090Z,0.00
2022-11-30T02:54:15.040Z,0.00
2022-11-30T02:55:14.927Z,0.00
2022-11-30T02:56:14.850Z,0.00
2022-11-30T02:57:14.776Z,0.00
2022-11-30T02:58:14.700Z,0.00
2022-11-30T02:59:14.627Z,0.00
2022-11-30T03:00:14.547Z,0.00
2022-11-30T03:01:14.566Z,0.00
2022-11-30T03:02:14.415Z,0.00
2022-11-30T03:03:14.345Z,0.00
2022-11-30T03:04:14.237Z,0.00
2022-11-30T03:05:14.162Z,0.00
2022-11-30T03:06:14.080Z,0.00
2022-11-30T03:07:14.003Z,0.00
2022-11-30T03:08:13.921Z,0.00
2022-11-30T03:09:13.840Z,0.00
2022-11-30T03:10:13.787Z,0.00
2022-11-30T03:11:13.683Z,0.00
2022-11-30T03:12:13.593Z,0.00
2022-11-30T03:13:13.517Z,0.00
2022-11-30T03:14:13.438Z,0.00
2022-11-30T03:15:13.365Z,0.00
2022-11-30T03:16:13.353Z,0.00
2022-11-30T03:17:13.212Z,0.00
2022-11-30T03:18:13.132Z,0.00
2022-11-30T03:19:13.055Z,0.00
2022-11-30T03:20:12.983Z,0.00
2022-11-30T03:21:12.921Z,0.00
2022-11-30T03:22:12.832Z,0.00
2022-11-30T03:23:12.750Z,0.00
2022-11-30T03:24:12.670Z,0.00
2022-11-30T03:25:12.590Z,0.00
2022-11-30T03:26:12.540Z,0.00
2022-11-30T03:27:12.438Z,0.00
2022-11-30T03:28:12.363Z,0.00
2022-11-30T03:29:12.293Z,0.00
2022-11-30T03:30:12.215Z,0.00
2022-11-30T03:31:12.245Z,0.00
2022-11-30T03:32:12.068Z,0.00
2022-11-30T03:33:11.985Z,0.00
2022-11-30T03:34:11.906Z,0.00
2022-11-30T03:35:11.828Z,0.00
2022-11-30T03:36:11.758Z,0.00
2022-11-30T03:37:11.682Z,0.00
2022-11-30T03:38:11.586Z,0.00
2022-11-30T03:39:11.505Z,0.00
2022-11-30T03:40:11.436Z,0.00
2022-11-30T03:41:11.344Z,0.00
2022-11-30T03:42:11.289Z,0.00
2022-11-30T03:43:11.192Z,0.00
2022-11-30T03:44:11.113Z,0.00
2022-11-30T03:45:11.035Z,0.00
2022-11-30T03:46:11.058Z,0.00
2022-11-30T03:47:10.885Z,0.00
2022-11-30T03:48:10.808Z,0.00
2022-11-30T03:49:10.734Z,0.00
2022-11-30T03:50:10.668Z,0.00
2022-11-30T03:51:10.591Z,0.00
2022-11-30T03:52:10.508Z,0.00
2022-11-30T03:53:10.432Z,0.00
2022-11-30T03:54:10.358Z,0.00
2022-11-30T03:55:10.275Z,0.00
2022-11-30T03:56:10.197Z,0.00
2022-11-30T03:57:10.123Z,0.00
2022-11-30T03:58:10.066Z,0.00
2022-11-30T03:59:09.964Z,0.00
2022-11-30T04:00:09.878Z,0.00
2022-11-30T04:01:09.792Z,0.00
2022-11-30T04:02:09.764Z,0.00
2022-11-30T04:03:09.698Z,0.00
2022-11-30T04:04:09.557Z,0.00
2022-11-30T04:05:09.484Z,0.00
2022-11-30T04:06:09.407Z,0.00
2022-11-30T04:07:09.330Z,0.00
2022-11-30T04:08:09.254Z,0.00
2022-11-30T04:09:09.176Z,0.00
2022-11-30T04:10:09.107Z,0.00
2022-11-30T04:11:09.021Z,0.00
2022-11-30T04:12:08.945Z,0.00
2022-11-30T04:13:08.870Z,0.00
2022-11-30T04:14:08.825Z,0.00
2022-11-30T04:15:08.722Z,0.00
2022-11-30T04:16:08.707Z,0.00
2022-11-30T04:17:08.556Z,0.00
2022-11-30T04:18:08.474Z,0.00
2022-11-30T04:19:08.393Z,0.00
2022-11-30T04:20:08.313Z,0.00
2022-11-30T04:21:08.230Z,0.00
2022-11-30T04:22:08.154Z,0.00
2022-11-30T04:23:08.074Z,0.00
2022-11-30T04:24:07.995Z,0.00
2022-11-30T04:25:07.919Z,0.00
2022-11-30T04:26:07.835Z,0.00
2022-11-30T04:27:07.754Z,0.00
2022-11-30T04:28:07.669Z,0.00
2022-11-30T04:29:07.592Z,0.00
2022-11-30T04:30:07.546Z,0.00
2022-11-30T04:31:07.510Z,0.00
2022-11-30T04:32:07.365Z,0.00
2022-11-30T04:33:07.286Z,0.00
2022-11-30T04:34:07.211Z,0.00
2022-11-30T04:35:07.128Z,0.00
2022-11-30T04:36:07.054Z,0.00
2022-11-30T04:37:06.976Z,0.00
2022-11-30T04:38:06.894Z,0.00
2022-11-30T04:39:06.806Z,0.00
2022-11-30T04:40:06.725Z,0.00
2022-11-30T04:41:06.646Z,0.00
2022-11-30T04:42:06.570Z,0.00
2022-11-30T04:43:06.493Z,0.00
2022-11-30T04:44:06.414Z,0.00
2022-11-30T04:45:06.337Z,0.00
2022-11-30T04:46:06.296Z,0.00
2022-11-30T04:47:06.184Z,0.00
2022-11-30T04:48:06.118Z,0.00
2022-11-30T04:49:06.031Z,0.00
2022-11-30T04:50:05.957Z,0.00
2022-11-30T04:51:05.896Z,0.00
2022-11-30T04:52:05.805Z,0.00
2022-11-30T04:53:05.731Z,0.00
2022-11-30T04:54:05.654Z,0.00
2022-11-30T04:55:05.574Z,0.00
2022-11-30T04:56:05.497Z,0.00
2022-11-30T04:57:05.419Z,0.00
2022-11-30T04:58:05.339Z,0.00
2022-11-30T04:59:05.263Z,0.00
2022-11-30T05:00:05.182Z,0.00
2022-11-30T05:01:05.110Z,0.00
2022-11-30T05:02:05.146Z,0.00
2022-11-30T05:03:04.955Z,0.00
2022-11-30T05:04:04.939Z,0.00
2022-11-30T05:05:04.808Z,0.00
2022-11-30T05:06:04.733Z,0.00
2022-11-30T05:07:04.657Z,0.00
2022-11-30T05:08:04.591Z,0.00
2022-11-30T05:09:04.508Z,0.00
2022-11-30T05:10:04.431Z,0.00
2022-11-30T05:11:04.358Z,0.00
2022-11-30T05:12:04.284Z,0.00
2022-11-30T05:13:04.208Z,0.00
2022-11-30T05:14:04.131Z,0.00
2022-11-30T05:15:04.062Z,0.00
2022-11-30T05:16:04.078Z,0.00
2022-11-30T05:17:03.921Z,0.00
2022-11-30T05:18:03.864Z,0.00
2022-11-30T05:19:03.766Z,0.00
2022-11-30T05:20:03.695Z,0.00
2022-11-30T05:21:03.616Z,0.00
2022-11-30T05:22:03.543Z,0.00
2022-11-30T05:23:03.466Z,0.00
2022-11-30T05:24:03.390Z,0.00
2022-11-30T05:25:03.312Z,0.00
2022-11-30T05:26:03.245Z,0.00
2022-11-30T05:27:05.461Z,0.00
2022-11-30T05:28:04.111Z,0.00
2022-11-30T05:29:03.028Z,0.00
2022-11-30T05:30:02.964Z,0.00
2022-11-30T05:31:02.922Z,0.00
2022-11-30T05:32:02.795Z,0.00
2022-11-30T05:33:02.718Z,0.00
2022-11-30T05:34:02.669Z,0.00
2022-11-30T05:35:02.563Z,0.00
2022-11-30T05:36:07.173Z,0.00
2022-11-30T05:37:03.420Z,0.00
2022-11-30T05:38:02.332Z,0.00
2022-11-30T05:39:02.258Z,0.00
2022-11-30T05:40:02.180Z,0.00
2022-11-30T05:41:02.105Z,0.00
2022-11-30T05:42:02.028Z,0.00
2022-11-30T05:43:01.951Z,0.00
2022-11-30T05:44:01.874Z,0.00
2022-11-30T05:45:01.802Z,0.00
2022-11-30T05:46:01.727Z,0.00
2022-11-30T05:47:01.713Z,0.00
2022-11-30T05:48:01.566Z,0.00
2022-11-30T05:49:01.489Z,0.00
2022-11-30T05:50:01.437Z,0.00
2022-11-30T05:51:01.331Z,0.00
2022-11-30T05:52:01.256Z,0.00
2022-11-30T05:53:01.179Z,0.00
2022-11-30T05:54:01.100Z,0.00
2022-11-30T05:55:01.019Z,0.00
2022-11-30T05:56:00.947Z,0.00
2022-11-30T05:57:00.865Z,0.00
2022-11-30T05:58:00.794Z,0.00
2022-11-30T05:59:00.698Z,0.00
2022-11-30T06:00:00.621Z,0.00
2022-11-30T06:01:00.548Z,0.00
2022-11-30T06:02:00.599Z,0.00
2022-11-30T06:03:00.560Z,0.00
2022-11-30T06:04:02.514Z,0.00
2022-11-30T06:05:00.232Z,0.00
2022-11-30T06:06:00.189Z,0.00
2022-11-30T06:07:00.075Z,0.00
2022-11-30T06:08:00.051Z,0.00
2022-11-30T06:08:59.928Z,0.00
2022-11-30T06:09:59.853Z,0.00
2022-11-30T06:10:59.779Z,0.00
2022-11-30T06:11:59.704Z,0.00
2022-11-30T06:12:59.633Z,0.00
2022-11-30T06:13:59.551Z,0.00
2022-11-30T06:14:59.476Z,0.00
2022-11-30T06:15:59.492Z,0.00
2022-11-30T06:16:59.329Z,0.00
2022-11-30T06:17:59.254Z,0.00
2022-11-30T06:18:59.180Z,0.00
2022-11-30T06:19:59.113Z,0.00
2022-11-30T06:20:59.032Z,0.00
2022-11-30T06:21:59.049Z,0.00
2022-11-30T06:22:58.884Z,0.00
2022-11-30T06:23:58.807Z,0.00
2022-11-30T06:24:58.727Z,0.00
2022-11-30T06:25:58.656Z,0.00
2022-11-30T06:26:58.581Z,0.00
2022-11-30T06:27:58.506Z,0.00
2022-11-30T06:28:58.431Z,0.00
2022-11-30T06:29:58.364Z,0.00
2022-11-30T06:30:58.280Z,0.00
2022-11-30T06:31:58.231Z,0.00
2022-11-30T06:32:58.129Z,0.00
2022-11-30T06:33:58.061Z,0.00
2022-11-30T06:34:57.986Z,0.00
2022-11-30T06:35:57.908Z,0.00
2022-11-30T06:36:57.832Z,0.00
2022-11-30T06:37:59.783Z,0.00
2022-11-30T06:38:57.687Z,0.00
2022-11-30T06:40:06.465Z,0.00
2022-11-30T06:40:57.547Z,0.00
2022-11-30T06:41:57.473Z,0.00
2022-11-30T06:42:57.398Z,0.00
2022-11-30T06:43:57.329Z,0.00
2022-11-30T06:44:57.260Z,0.00
2022-11-30T06:45:57.200Z,0.00
2022-11-30T06:46:57.113Z,0.00
2022-11-30T06:47:57.047Z,0.00
2022-11-30T06:48:56.976Z,0.00
2022-11-30T06:49:56.905Z,0.00
2022-11-30T06:50:56.842Z,0.00
2022-11-30T06:51:56.769Z,0.00
2022-11-30T06:52:56.691Z,0.00
2022-11-30T06:53:56.642Z,0.00
2022-11-30T06:54:56.545Z,0.00
2022-11-30T06:55:56.466Z,0.00
2022-11-30T06:56:56.392Z,0.00
2022-11-30T06:57:56.310Z,0.00
2022-11-30T06:58:56.232Z,0.00
2022-11-30T06:59:56.156Z,0.00
2022-11-30T07:00:56.150Z,0.00
2022-11-30T07:01:55.996Z,0.00
2022-11-30T07:02:55.912Z,0.00
2022-11-30T07:03:55.874Z,0.00
2022-11-30T07:04:55.738Z,0.00
2022-11-30T07:05:55.655Z,0.00
2022-11-30T07:06:55.571Z,0.00
2022-11-30T07:07:55.530Z,0.00
2022-11-30T07:08:55.409Z,0.00
2022-11-30T07:09:55.454Z,0.00
2022-11-30T07:10:55.254Z,0.00
2022-11-30T07:11:55.172Z,0.00
2022-11-30T07:12:55.090Z,0.00
2022-11-30T07:13:55.009Z,0.00
2022-11-30T07:14:54.932Z,0.00
2022-11-30T07:15:54.856Z,0.00
2022-11-30T07:16:54.878Z,0.00
2022-11-30T07:17:54.693Z,0.00
2022-11-30T07:18:54.620Z,0.00
2022-11-30T07:19:54.546Z,0.00
2022-11-30T07:20:54.469Z,0.00
2022-11-30T07:21:54.395Z,0.00
2022-11-30T07:22:54.318Z,0.00
2022-11-30T07:23:56.780Z,0.00
2022-11-30T07:24:54.169Z,5.62
2022-11-30T07:25:54.116Z,5.62
2022-11-30T07:26:54.014Z,5.62
2022-11-30T07:27:53.935Z,5.62
2022-11-30T07:28:53.863Z,5.62
2022-11-30T07:29:53.784Z,5.62
2022-11-30T07:30:53.708Z,5.62
2022-11-30T07:31:53.670Z,5.62
2022-11-30T07:32:53.548Z,5.62
2022-11-30T07:33:53.473Z,5.62
2022-11-30T07:34:53.394Z,5.62
2022-11-30T07:35:53.316Z,5.62
2022-11-30T07:36:53.241Z,5.62
2022-11-30T07:37:53.169Z,5.62
2022-11-30T07:38:53.098Z,5.62
2022-11-30T07:39:53.024Z,5.62
2022-11-30T07:40:52.944Z,5.62
2022-11-30T07:41:52.896Z,5.62
2022-11-30T07:42:52.794Z,5.62
2022-11-30T07:43:52.721Z,5.62
2022-11-30T07:44:58.434Z,5.62
2022-11-30T07:45:52.579Z,5.62
2022-11-30T07:46:52.487Z,5.62
2022-11-30T07:47:52.409Z,5.62
2022-11-30T07:48:52.334Z,5.62
2022-11-30T07:49:52.260Z,5.62
2022-11-30T07:50:52.184Z,11.25
2022-11-30T07:51:52.118Z,11.25
2022-11-30T07:52:52.047Z,5.62
2022-11-30T07:53:51.983Z,11.25
2022-11-30T07:54:51.909Z,11.25
2022-11-30T07:55:56.895Z,11.25
2022-11-30T07:56:51.761Z,11.25
2022-11-30T07:57:51.717Z,11.25
2022-11-30T07:58:51.625Z,11.25
2022-11-30T07:59:51.552Z,11.25
2022-11-30T08:00:51.591Z,11.25
2022-11-30T08:01:51.559Z,11.25
2022-11-30T08:02:51.327Z,11.25
2022-11-30T08:03:51.249Z,11.25
2022-11-30T08:04:51.577Z,11.25
2022-11-30T08:05:51.094Z,11.25
2022-11-30T08:06:51.014Z,11.25
2022-11-30T08:07:50.973Z,11.25
2022-11-30T08:08:50.852Z,11.25
2022-11-30T08:09:50.776Z,16.87
2022-11-30T08:10:50.702Z,16.87
2022-11-30T08:11:50.625Z,16.87
2022-11-30T08:12:50.545Z,16.87
2022-11-30T08:13:50.484Z,16.87
2022-11-30T08:15:18.819Z,16.87
2022-11-30T08:15:51.326Z,16.87
2022-11-30T08:16:50.283Z,16.87
2022-11-30T08:17:50.157Z,16.87
2022-11-30T08:18:50.079Z,16.87
2022-11-30T08:19:50.005Z,22.50
2022-11-30T08:20:50.317Z,22.50
2022-11-30T08:21:49.856Z,22.50
2022-11-30T08:22:49.787Z,22.50
2022-11-30T08:23:49.766Z,22.50
2022-11-30T08:24:50.009Z,22.50
2022-11-30T08:25:49.560Z,22.50
2022-11-30T08:26:49.484Z,22.50
2022-11-30T08:27:49.414Z,28.12
2022-11-30T08:28:49.334Z,28.12
2022-11-30T08:29:49.292Z,28.12
2022-11-30T08:30:49.258Z,28.12
2022-11-30T08:31:49.127Z,33.75
2022-11-30T08:32:49.060Z,28.12
2022-11-30T08:33:48.975Z,28.12
2022-11-30T08:34:49.209Z,28.12
2022-11-30T08:35:48.849Z,39.37
2022-11-30T08:36:51.733Z,39.37
2022-11-30T08:37:48.688Z,33.75
2022-11-30T08:38:48.610Z,33.75
2022-11-30T08:39:48.534Z,33.75
2022-11-30T08:40:48.455Z,33.75
2022-11-30T08:41:48.371Z,33.75
2022-11-30T08:42:48.288Z,33.75
2022-11-30T08:43:48.216Z,33.75
2022-11-30T08:44:48.129Z,28.12
2022-11-30T08:45:51.440Z,33.75
2022-11-30T08:46:51.866Z,33.75
2022-11-30T08:47:47.903Z,33.75
2022-11-30T08:48:47.831Z,33.75
2022-11-30T08:49:47.757Z,39.37
2022-11-30T08:50:47.683Z,39.37
2022-11-30T08:52:48.544Z,45.00
2022-11-30T08:53:47.450Z,39.37
2022-11-30T08:54:47.886Z,39.37
2022-11-30T08:55:47.289Z,39.37
2022-11-30T08:56:47.210Z,39.37
2022-11-30T08:57:47.132Z,39.37
2022-11-30T08:58:47.054Z,33.75
2022-11-30T08:59:46.974Z,33.75
2022-11-30T09:00:46.893Z,33.75
2022-11-30T09:01:46.840Z,33.75
2022-11-30T09:02:46.850Z,33.75
2022-11-30T09:03:46.657Z,33.75
2022-11-30T09:04:46.579Z,39.37
2022-11-30T09:05:46.505Z,39.37
2022-11-30T09:06:46.426Z,39.37
2022-11-30T09:07:46.400Z,45.00
2022-11-30T09:08:46.258Z,45.00
2022-11-30T09:09:46.179Z,50.62
2022-11-30T09:10:46.101Z,50.62
2022-11-30T09:11:46.025Z,56.25
2022-11-30T09:12:45.948Z,56.25
2022-11-30T09:13:45.872Z,56.25
2022-11-30T09:14:47.713Z,61.87
2022-11-30T09:15:45.796Z,61.87
2022-11-30T09:16:45.734Z,61.87
2022-11-30T09:17:45.624Z,56.25
2022-11-30T09:18:45.477Z,56.25
2022-11-30T09:19:45.400Z,61.87
2022-11-30T09:20:45.323Z,67.50
2022-11-30T09:21:51.279Z,73.12
2022-11-30T09:22:46.183Z,78.75
2022-11-30T09:23:45.092Z,78.75
2022-11-30T09:24:45.756Z,84.37
2022-11-30T09:25:44.938Z,73.12
2022-11-30T09:26:44.864Z,73.12
2022-11-30T09:27:44.791Z,73.12
2022-11-30T09:28:44.718Z,73.12
2022-11-30T09:29:44.638Z,84.37
2022-11-30T09:30:44.577Z,95.62
2022-11-30T09:31:44.478Z,90.00
2022-11-30T09:32:44.405Z,84.37
2022-11-30T09:33:44.353Z,84.37
2022-11-30T09:34:44.386Z,84.37
2022-11-30T09:35:44.168Z,78.75
2022-11-30T09:36:44.111Z,95.62
2022-11-30T09:37:44.006Z,78.75
2022-11-30T09:38:43.928Z,78.75
2022-11-30T09:39:43.855Z,78.75
2022-11-30T09:40:43.771Z,78.75
2022-11-30T09:41:43.694Z,73.12
2022-11-30T09:42:43.613Z,67.50
2022-11-30T09:43:43.537Z,73.12
2022-11-30T09:44:43.459Z,78.75
2022-11-30T09:45:43.452Z,78.75
2022-11-30T09:46:43.297Z,84.37
2022-11-30T09:47:43.215Z,95.62
2022-11-30T09:48:43.137Z,112.50
2022-11-30T09:49:43.075Z,123.75
2022-11-30T09:50:42.972Z,123.75
2022-11-30T09:51:42.892Z,123.75
2022-11-30T09:52:42.821Z,123.75
2022-11-30T09:53:42.740Z,112.50
2022-11-30T09:54:42.659Z,118.12
2022-11-30T09:55:42.664Z,118.12
2022-11-30T09:56:42.494Z,118.12
2022-11-30T09:57:42.442Z,101.25
2022-11-30T09:58:42.327Z,95.62
2022-11-30T09:59:42.249Z,90.00
2022-11-30T10:00:42.192Z,84.37
2022-11-30T10:01:45.690Z,78.75
2022-11-30T10:02:42.144Z,78.75
2022-11-30T10:03:42.018Z,78.75
2022-11-30T10:04:41.838Z,78.75
2022-11-30T10:05:41.788Z,78.75
2022-11-30T10:06:41.683Z,78.75
2022-11-30T10:07:41.642Z,78.75
2022-11-30T10:08:46.057Z,84.37
2022-11-30T10:09:42.559Z,84.37
2022-11-30T10:10:41.387Z,78.75
2022-11-30T10:11:41.308Z,78.75
2022-11-30T10:12:41.235Z,73.12
2022-11-30T10:13:41.164Z,67.50
2022-11-30T10:14:41.089Z,67.50
2022-11-30T10:15:41.084Z,61.87
2022-11-30T10:16:40.936Z,61.87
2022-11-30T10:17:40.860Z,61.87
2022-11-30T10:18:40.784Z,67.50
2022-11-30T10:19:40.722Z,67.50
2022-11-30T10:20:40.642Z,73.12
2022-11-30T10:21:40.588Z,73.12
2022-11-30T10:22:40.492Z,78.75
2022-11-30T10:23:40.415Z,78.75
2022-11-30T10:24:40.339Z,78.75
2022-11-30T10:25:40.266Z,73.12
2022-11-30T10:26:40.200Z,73.12
2022-11-30T10:27:40.129Z,73.12
2022-11-30T10:28:48.381Z,73.12
2022-11-30T10:29:39.966Z,73.12
2022-11-30T10:30:39.949Z,73.12
2022-11-30T10:31:39.820Z,84.37
2022-11-30T10:32:39.751Z,84.37
2022-11-30T10:33:39.672Z,78.75
2022-11-30T10:34:39.596Z,90.00
2022-11-30T10:35:39.515Z,90.00
2022-11-30T10:36:39.443Z,90.00
2022-11-30T10:37:39.399Z,95.62
2022-11-30T10:38:39.292Z,84.37
2022-11-30T10:39:39.221Z,95.62
2022-11-30T10:40:39.144Z,95.62
2022-11-30T10:41:39.068Z,84.37
2022-11-30T10:42:38.992Z,73.12
2022-11-30T10:43:38.919Z,78.75
2022-11-30T10:44:38.839Z,73.12
2022-11-30T10:45:38.768Z,67.50
2022-11-30T10:46:38.806Z,73.12
2022-11-30T10:47:38.612Z,78.75
2022-11-30T10:48:38.538Z,78.75
2022-11-30T10:49:38.462Z,78.75
2022-11-30T10:50:38.386Z,84.37
2022-11-30T10:51:38.325Z,84.37
2022-11-30T10:52:38.239Z,84.37
2022-11-30T10:53:38.188Z,90.00
2022-11-30T10:54:38.088Z,90.00
2022-11-30T10:55:38.008Z,90.00
2022-11-30T10:56:37.937Z,90.00
2022-11-30T10:57:37.852Z,106.87
2022-11-30T10:58:37.773Z,106.87
2022-11-30T10:59:37.700Z,106.87
2022-11-30T11:00:37.620Z,95.62
2022-11-30T11:01:37.562Z,84.37
2022-11-30T11:02:37.506Z,78.75
2022-11-30T11:03:37.391Z,78.75
2022-11-30T11:04:37.313Z,78.75
2022-11-30T11:05:37.231Z,95.62
2022-11-30T11:06:37.168Z,90.00
2022-11-30T11:07:37.167Z,84.37
2022-11-30T11:08:36.993Z,73.12
2022-11-30T11:09:36.931Z,67.50
2022-11-30T11:10:36.849Z,61.87
2022-11-30T11:11:36.759Z,61.87
2022-11-30T11:12:36.664Z,61.87
2022-11-30T11:13:36.591Z,67.50
2022-11-30T11:14:38.266Z,67.50
2022-11-30T11:15:36.605Z,67.50
2022-11-30T11:16:36.348Z,67.50
2022-11-30T11:17:36.266Z,67.50
2022-11-30T11:18:36.189Z,67.50
2022-11-30T11:19:36.112Z,67.50
2022-11-30T11:20:36.030Z,61.87
2022-11-30T11:21:35.958Z,61.87
2022-11-30T11:22:35.870Z,61.87
2022-11-30T11:23:35.784Z,61.87
2022-11-30T11:24:35.708Z,61.87
2022-11-30T11:25:35.658Z,61.87
2022-11-30T11:26:35.552Z,56.25
2022-11-30T11:27:38.693Z,56.25
2022-11-30T11:28:36.418Z,50.62
2022-11-30T11:29:35.318Z,56.25
2022-11-30T11:30:35.245Z,56.25
2022-11-30T11:31:35.220Z,56.25
2022-11-30T11:32:35.085Z,50.62
2022-11-30T11:33:35.014Z,50.62
2022-11-30T11:34:34.940Z,50.62
2022-11-30T11:35:34.864Z,50.62
2022-11-30T11:36:34.791Z,45.00
2022-11-30T11:37:34.717Z,45.00
2022-11-30T11:38:34.639Z,45.00
2022-11-30T11:39:34.568Z,45.00
2022-11-30T11:40:34.489Z,45.00
2022-11-30T11:41:34.433Z,45.00
2022-11-30T11:42:34.333Z,45.00
2022-11-30T11:43:34.251Z,50.62
2022-11-30T11:44:34.166Z,56.25
2022-11-30T11:45:34.087Z,56.25
2022-11-30T11:46:34.064Z,56.25
2022-11-30T11:47:33.928Z,56.25
2022-11-30T11:48:33.958Z,50.62
2022-11-30T11:49:33.771Z,56.25
2022-11-30T11:51:33.616Z,67.50
2022-11-30T11:52:33.535Z,73.12
2022-11-30T11:53:35.969Z,78.75
2022-11-30T11:54:33.371Z,73.12
2022-11-30T11:55:33.289Z,67.50
2022-11-30T11:56:33.213Z,56.25
2022-11-30T11:57:33.159Z,50.62
2022-11-30T11:58:33.070Z,50.62
2022-11-30T11:59:33.026Z,45.00
2022-11-30T12:00:32.912Z,45.00
2022-11-30T12:01:39.687Z,39.37
2022-11-30T12:02:33.823Z,45.00
2022-11-30T12:03:32.666Z,45.00
2022-11-30T12:04:32.731Z,45.00
2022-11-30T12:05:32.520Z,45.00
2022-11-30T12:06:32.437Z,45.00
2022-11-30T12:07:32.401Z,39.37
2022-11-30T12:08:32.288Z,39.37
2022-11-30T12:09:32.216Z,39.37
2022-11-30T12:11:32.063Z,45.00
2022-11-30T12:12:31.989Z,45.00
2022-11-30T12:13:31.945Z,50.62
2022-11-30T12:14:31.849Z,50.62
2022-11-30T12:15:31.777Z,50.62
2022-11-30T12:16:31.801Z,50.62
2022-11-30T12:17:31.642Z,50.62
2022-11-30T12:18:31.561Z,50.62
2022-11-30T12:19:31.485Z,50.62
2022-11-30T12:20:31.417Z,45.00
2022-11-30T12:21:31.340Z,45.00
2022-11-30T12:22:31.275Z,45.00
2022-11-30T12:23:31.204Z,45.00
2022-11-30T12:24:31.127Z,39.37
2022-11-30T12:25:31.052Z,39.37
2022-11-30T12:26:30.982Z,56.25
2022-11-30T12:27:30.899Z,61.87
2022-11-30T12:28:30.913Z,61.87
2022-11-30T12:29:30.778Z,50.62
2022-11-30T12:30:30.669Z,50.62
2022-11-30T12:31:30.645Z,56.25
2022-11-30T12:32:30.536Z,50.62
2022-11-30T12:33:30.451Z,45.00
2022-11-30T12:34:30.383Z,39.37
2022-11-30T12:35:30.314Z,39.37
2022-11-30T12:36:30.243Z,39.37
2022-11-30T12:37:30.174Z,39.37
2022-11-30T12:38:30.171Z,39.37
2022-11-30T12:39:30.032Z,33.75
2022-11-30T12:40:29.961Z,33.75
2022-11-30T12:41:29.887Z,33.75
2022-11-30T12:42:29.814Z,33.75
2022-11-30T12:43:29.738Z,33.75
2022-11-30T12:44:29.666Z,33.75
2022-11-30T12:45:29.616Z,39.37
2022-11-30T12:46:29.567Z,39.37
2022-11-30T12:47:29.450Z,39.37
2022-11-30T12:48:29.407Z,45.00
2022-11-30T12:49:29.294Z,45.00
2022-11-30T12:50:29.221Z,45.00
2022-11-30T12:51:30.138Z,45.00
2022-11-30T12:52:29.072Z,50.62
2022-11-30T12:53:29.000Z,50.62
2022-11-30T12:54:28.930Z,45.00
2022-11-30T12:55:28.849Z,45.00
2022-11-30T12:56:28.768Z,50.62
2022-11-30T12:57:28.690Z,50.62
2022-11-30T12:58:28.611Z,45.00
2022-11-30T12:59:28.536Z,45.00
2022-11-30T13:00:28.546Z,39.37
2022-11-30T13:01:28.423Z,33.75
2022-11-30T13:02:28.362Z,33.75
2022-11-30T13:03:28.248Z,33.75
2022-11-30T13:04:28.178Z,33.75
2022-11-30T13:05:28.101Z,33.75
2022-11-30T13:06:28.032Z,33.75
2022-11-30T13:07:28.045Z,39.37
2022-11-30T13:08:27.894Z,39.37
2022-11-30T13:09:27.827Z,39.37